Time;durP1;ratioP1;P1;durP2;ratioP2;P2;SDS_P1;SDS_P2;PMS_P1;PMS_P2;Temp;Humidity;BMP_temperature;BMP_pressure;BME280_temperature;BME280_humidity;BME280_pressure;Samples;Min_cycle;Max_cycle;Signal;HPM_P1;HPM_P2
2023/10/28 00:00:29;;;;;;;3.10;1.60;;;12.60;99.90;;;;;;4964667;28;20212;-76
2023/10/28 00:03:00;;;;;;;3.42;1.83;;;12.70;99.90;;;;;;4990264;28;20189;-76
2023/10/28 00:05:25;;;;;;;3.15;1.73;;;12.60;99.90;;;;;;4984905;28;20223;-77
2023/10/28 00:07:51;;;;;;;3.50;2.08;;;12.60;99.90;;;;;;4977085;28;20217;-76
2023/10/28 00:10:21;;;;;;;3.28;1.77;;;12.60;99.90;;;;;;4977268;28;20203;-76
2023/10/28 00:12:50;;;;;;;2.42;1.65;;;12.60;99.90;;;;;;4967121;28;20205;-77
2023/10/28 00:15:18;;;;;;;2.35;1.60;;;12.60;99.90;;;;;;4958006;28;20192;-75
2023/10/28 00:17:47;;;;;;;2.70;1.50;;;12.60;99.90;;;;;;4976317;28;20203;-75
2023/10/28 00:20:17;;;;;;;2.83;1.40;;;12.70;99.90;;;;;;4976429;28;20172;-76
2023/10/28 00:22:45;;;;;;;2.15;1.55;;;12.60;99.90;;;;;;4987612;28;20180;-76
2023/10/28 00:25:11;;;;;;;2.45;1.48;;;12.70;99.90;;;;;;4992839;28;20171;-77
2023/10/28 00:27:37;;;;;;;3.30;1.75;;;12.60;99.90;;;;;;4976020;28;20171;-76
2023/10/28 00:30:07;;;;;;;4.32;1.98;;;12.70;99.90;;;;;;4976028;28;20235;-76
2023/10/28 00:32:36;;;;;;;3.08;1.58;;;12.70;99.90;;;;;;4979224;28;20203;-76
2023/10/28 00:35:02;;;;;;;2.85;1.60;;;12.60;99.90;;;;;;4969755;28;20180;-75
2023/10/28 00:37:29;;;;;;;3.25;1.70;;;12.70;99.90;;;;;;4981033;28;20207;-76
2023/10/28 00:39:58;;;;;;;4.50;1.80;;;12.70;99.90;;;;;;4977180;28;20195;-76
2023/10/28 00:42:24;;;;;;;2.53;1.60;;;12.70;99.90;;;;;;4977378;28;20195;-74
2023/10/28 00:44:50;;;;;;;2.75;1.48;;;12.70;99.90;;;;;;4972553;28;20212;-75
2023/10/28 00:47:16;;;;;;;2.65;1.58;;;12.70;99.90;;;;;;4981292;28;20238;-76
2023/10/28 00:49:43;;;;;;;2.67;1.40;;;12.70;99.90;;;;;;4966978;28;20187;-71
2023/10/28 00:52:09;;;;;;;3.47;1.60;;;12.70;99.90;;;;;;4974307;28;20234;-72
2023/10/28 00:54:35;;;;;;;2.72;1.67;;;12.70;99.90;;;;;;4971161;28;20183;-76
2023/10/28 00:57:01;;;;;;;2.03;1.55;;;12.70;99.90;;;;;;4975624;28;20194;-76
2023/10/28 00:59:28;;;;;;;4.55;1.60;;;12.70;99.90;;;;;;4977042;28;20255;-77
2023/10/28 01:01:54;;;;;;;3.60;1.65;;;12.70;99.90;;;;;;4972862;28;20184;-76
2023/10/28 01:04:20;;;;;;;2.72;1.77;;;12.70;99.90;;;;;;4975585;28;20280;-75
2023/10/28 01:06:46;;;;;;;2.50;1.42;;;12.80;99.90;;;;;;4975180;28;20200;-77
2023/10/28 01:09:12;;;;;;;2.15;1.50;;;12.70;99.90;;;;;;4985784;28;20207;-76
2023/10/28 01:11:40;;;;;;;1.88;1.10;;;12.70;99.90;;;;;;4975110;28;20227;-76
2023/10/28 01:14:07;;;;;;;2.03;1.30;;;12.70;99.90;;;;;;4978047;28;20167;-76
2023/10/28 01:16:40;;;;;;;2.00;1.10;;;12.70;99.90;;;;;;4979194;28;20184;-76
2023/10/28 01:19:06;;;;;;;1.02;0.80;;;12.80;99.90;;;;;;4971570;28;20505;-77
2023/10/28 01:21:36;;;;;;;1.65;1.00;;;12.80;99.90;;;;;;4988361;28;20207;-68
2023/10/28 01:24:03;;;;;;;2.20;1.27;;;12.80;99.90;;;;;;4988000;28;20215;-76
2023/10/28 01:26:31;;;;;;;1.42;1.00;;;12.80;99.90;;;;;;4964761;28;20192;-76
2023/10/28 01:28:56;;;;;;;1.67;1.08;;;12.80;99.90;;;;;;4957931;28;20176;-77
2023/10/28 01:31:22;;;;;;;1.48;0.90;;;12.80;99.90;;;;;;4970588;28;20215;-77
2023/10/28 01:33:48;;;;;;;2.22;1.25;;;12.80;99.90;;;;;;4979640;28;20242;-77
2023/10/28 01:36:18;;;;;;;2.05;0.82;;;12.80;99.90;;;;;;4973149;28;20255;-71
2023/10/28 01:38:44;;;;;;;1.73;0.82;;;12.80;99.90;;;;;;4964695;28;20180;-73
2023/10/28 01:41:16;;;;;;;1.42;0.90;;;12.80;99.90;;;;;;4977717;28;20291;-74
2023/10/28 01:43:45;;;;;;;2.30;0.80;;;12.80;99.90;;;;;;4972242;28;20191;-75
2023/10/28 01:46:11;;;;;;;1.10;0.80;;;12.70;99.90;;;;;;4960293;28;20267;-73
2023/10/28 01:48:37;;;;;;;1.67;0.90;;;12.80;99.90;;;;;;4984295;28;20203;-78
2023/10/28 01:51:03;;;;;;;1.48;0.77;;;12.80;99.90;;;;;;4964879;28;20181;-77
2023/10/28 01:53:30;;;;;;;1.33;0.77;;;12.80;99.90;;;;;;4974896;28;20168;-77
2023/10/28 01:55:57;;;;;;;1.30;0.70;;;12.80;99.90;;;;;;4984085;28;20226;-72
2023/10/28 01:58:23;;;;;;;2.08;0.70;;;12.80;99.90;;;;;;4975397;28;20176;-77
2023/10/28 02:00:49;;;;;;;1.60;0.70;;;12.80;99.90;;;;;;4988226;28;20259;-77
2023/10/28 02:03:15;;;;;;;1.80;0.80;;;12.80;99.90;;;;;;4973878;28;20200;-76
2023/10/28 02:05:42;;;;;;;1.35;0.80;;;12.70;99.90;;;;;;4970236;28;20177;-78
2023/10/28 02:08:10;;;;;;;2.10;0.70;;;12.70;99.90;;;;;;4970389;28;20187;-77
2023/10/28 02:10:36;;;;;;;0.70;0.50;;;12.90;99.90;;;;;;4992120;28;20187;-77
2023/10/28 02:13:01;;;;;;;1.17;0.70;;;12.80;99.90;;;;;;4978000;28;20203;-78
2023/10/28 02:15:30;;;;;;;1.35;0.73;;;12.80;99.90;;;;;;4978532;28;20172;-77
2023/10/28 02:17:58;;;;;;;1.23;0.55;;;12.70;99.90;;;;;;4975888;28;20176;-74
2023/10/28 02:20:24;;;;;;;2.08;0.60;;;12.80;99.90;;;;;;4982174;28;20186;-76
2023/10/28 02:22:50;;;;;;;0.88;0.60;;;12.70;99.90;;;;;;4972266;28;20200;-75
2023/10/28 02:25:18;;;;;;;1.10;0.50;;;12.70;99.90;;;;;;4981965;28;20172;-77
2023/10/28 02:27:46;;;;;;;1.15;0.60;;;12.80;99.90;;;;;;4978010;28;20180;-77
2023/10/28 02:30:15;;;;;;;1.33;0.80;;;12.70;99.90;;;;;;4970467;28;20179;-77
2023/10/28 02:32:40;;;;;;;2.67;0.80;;;12.70;99.90;;;;;;4977759;28;20199;-77
2023/10/28 02:35:06;;;;;;;1.00;0.70;;;12.70;99.90;;;;;;4978771;28;20200;-75
2023/10/28 02:37:32;;;;;;;0.88;0.77;;;12.70;99.90;;;;;;4977033;28;20243;-75
2023/10/28 02:39:57;;;;;;;1.50;1.10;;;12.70;99.90;;;;;;4986547;28;20234;-76
2023/10/28 02:42:23;;;;;;;1.20;0.95;;;12.70;99.90;;;;;;4974741;28;20176;-78
2023/10/28 02:44:52;;;;;;;1.13;0.82;;;12.70;99.90;;;;;;4983483;28;20183;-78
2023/10/28 02:47:18;;;;;;;0.80;0.50;;;12.70;99.90;;;;;;4979054;28;20188;-76
2023/10/28 02:49:44;;;;;;;2.00;0.90;;;12.80;99.90;;;;;;4978891;28;20200;-74
2023/10/28 02:52:12;;;;;;;0.88;0.65;;;12.80;99.90;;;;;;4975983;28;20207;-78
2023/10/28 02:54:42;;;;;;;1.00;0.60;;;12.70;99.90;;;;;;4975305;28;20297;-77
2023/10/28 02:57:08;;;;;;;1.45;0.90;;;12.70;99.90;;;;;;4969552;28;20274;-78
2023/10/28 02:59:34;;;;;;;1.02;0.68;;;12.70;99.90;;;;;;4977132;28;20210;-78
2023/10/28 03:02:00;;;;;;;1.77;0.65;;;12.70;99.90;;;;;;4984473;28;20187;-77
2023/10/28 03:04:25;;;;;;;0.57;0.55;;;12.70;99.90;;;;;;4978184;28;20192;-78
2023/10/28 03:06:51;;;;;;;0.60;0.50;;;12.70;99.90;;;;;;4985376;28;20193;-78
2023/10/28 03:09:19;;;;;;;0.70;0.40;;;12.70;99.90;;;;;;4976025;28;20183;-78
2023/10/28 03:11:47;;;;;;;0.40;0.40;;;12.70;99.90;;;;;;4974425;28;20212;-76
2023/10/28 03:14:12;;;;;;;2.67;0.70;;;12.70;99.90;;;;;;4976521;28;20172;-78
2023/10/28 03:16:39;;;;;;;1.83;0.60;;;12.60;99.90;;;;;;4971931;28;20206;-78
2023/10/28 03:19:07;;;;;;;0.57;0.22;;;12.70;99.90;;;;;;4969671;28;20187;-78
2023/10/28 03:21:37;;;;;;;0.50;0.40;;;12.60;99.90;;;;;;4969462;28;20185;-79
2023/10/28 03:24:05;;;;;;;0.73;0.47;;;12.50;99.90;;;;;;4986254;28;20185;-77
2023/10/28 03:26:33;;;;;;;0.30;0.30;;;12.60;99.90;;;;;;4976685;28;20191;-78
2023/10/28 03:29:02;;;;;;;2.22;0.60;;;12.60;99.90;;;;;;4973217;28;20181;-78
2023/10/28 03:31:27;;;;;;;4.13;0.50;;;12.50;99.90;;;;;;4977405;28;20212;-78
2023/10/28 03:33:55;;;;;;;0.63;0.40;;;12.50;99.90;;;;;;4968337;28;20247;-78
2023/10/28 03:36:21;;;;;;;0.43;0.30;;;12.50;99.90;;;;;;4977032;28;20192;-75
2023/10/28 03:38:52;;;;;;;1.70;0.40;;;12.50;99.90;;;;;;4976158;28;20234;-79
2023/10/28 03:41:20;;;;;;;1.52;0.40;;;12.50;99.90;;;;;;4976030;28;20180;-77
2023/10/28 03:43:48;;;;;;;0.85;0.40;;;12.40;99.90;;;;;;4988619;28;20291;-79
2023/10/28 03:46:20;;;;;;;0.40;0.30;;;12.40;99.90;;;;;;4970515;28;20192;-79
2023/10/28 03:48:46;;;;;;;0.40;0.40;;;12.30;99.90;;;;;;4973000;28;20176;-76
2023/10/28 03:51:12;;;;;;;0.40;0.40;;;12.30;99.90;;;;;;4970584;28;20237;-73
2023/10/28 03:53:37;;;;;;;0.30;0.30;;;12.30;99.90;;;;;;4973982;28;20216;-76
2023/10/28 03:56:04;;;;;;;0.43;0.40;;;12.30;99.90;;;;;;4979650;28;20200;-73
2023/10/28 03:58:29;;;;;;;0.73;0.40;;;12.30;99.90;;;;;;4975343;28;20255;-75
2023/10/28 04:00:55;;;;;;;0.47;0.30;;;12.20;99.90;;;;;;4972790;28;20203;-76
2023/10/28 04:03:22;;;;;;;0.50;0.50;;;12.20;99.90;;;;;;4973609;28;20192;-77
2023/10/28 04:05:48;;;;;;;0.95;0.40;;;12.10;99.90;;;;;;4988946;28;20198;-76
2023/10/28 04:08:14;;;;;;;1.02;0.40;;;12.20;99.90;;;;;;4976790;28;20214;-75
2023/10/28 04:10:42;;;;;;;0.57;0.40;;;12.20;99.90;;;;;;4972503;28;20185;-76
2023/10/28 04:13:08;;;;;;;1.35;0.57;;;12.10;99.90;;;;;;4976600;28;20204;-77
2023/10/28 04:15:35;;;;;;;0.60;0.50;;;12.10;99.90;;;;;;4981182;28;20247;-77
2023/10/28 04:18:01;;;;;;;0.52;0.40;;;12.10;99.90;;;;;;4978937;28;20196;-76
2023/10/28 04:20:27;;;;;;;0.60;0.50;;;12.10;99.90;;;;;;4982188;28;20316;-77
2023/10/28 04:22:55;;;;;;;0.35;0.30;;;12.10;99.90;;;;;;4980118;28;20184;-75
2023/10/28 04:25:20;;;;;;;0.75;0.50;;;12.10;99.90;;;;;;4978671;28;20235;-74
2023/10/28 04:27:48;;;;;;;0.75;0.50;;;12.10;99.90;;;;;;4965424;28;20199;-74
2023/10/28 04:30:18;;;;;;;0.93;0.30;;;12.10;99.90;;;;;;4967923;28;20315;-77
2023/10/28 04:32:48;;;;;;;1.85;0.55;;;12.10;99.90;;;;;;4991754;28;20290;-77
2023/10/28 04:35:15;;;;;;;1.08;0.60;;;12.10;99.90;;;;;;4960456;28;20296;-73
2023/10/28 04:37:40;;;;;;;0.70;0.60;;;12.10;99.90;;;;;;4970253;28;20200;-77
2023/10/28 04:40:10;;;;;;;0.60;0.52;;;12.10;99.90;;;;;;4977588;28;20182;-75
2023/10/28 04:42:37;;;;;;;0.70;0.60;;;12.10;99.90;;;;;;4997091;28;20215;-77
2023/10/28 04:45:06;;;;;;;0.70;0.47;;;12.10;99.90;;;;;;4978056;28;20277;-76
2023/10/28 04:47:35;;;;;;;0.80;0.47;;;12.10;99.90;;;;;;4965401;28;20191;-76
2023/10/28 04:50:03;;;;;;;2.38;1.83;;;12.10;99.90;;;;;;4988249;28;20211;-77
2023/10/28 04:52:28;;;;;;;1.77;1.00;;;12.20;99.90;;;;;;4972595;28;20208;-76
2023/10/28 04:54:56;;;;;;;1.70;0.80;;;12.20;99.90;;;;;;4979322;28;20198;-75
2023/10/28 04:57:24;;;;;;;1.95;0.80;;;12.20;99.90;;;;;;4986876;28;20278;-76
2023/10/28 04:59:50;;;;;;;0.98;0.75;;;12.10;99.90;;;;;;4981594;28;20176;-77
2023/10/28 05:02:18;;;;;;;1.73;0.75;;;12.20;99.90;;;;;;4978091;28;20204;-73
2023/10/28 05:04:43;;;;;;;1.10;0.57;;;12.20;99.90;;;;;;4971814;28;20192;-77
2023/10/28 05:07:09;;;;;;;1.50;0.70;;;12.20;99.90;;;;;;4975528;28;20200;-75
2023/10/28 05:09:36;;;;;;;1.98;1.20;;;12.20;99.90;;;;;;4974501;28;20187;-74
2023/10/28 05:12:04;;;;;;;2.25;1.15;;;12.30;99.90;;;;;;4989491;28;20237;-77
2023/10/28 05:14:32;;;;;;;1.10;0.80;;;12.30;99.90;;;;;;4976260;28;20191;-79
2023/10/28 05:17:00;;;;;;;1.55;0.73;;;12.30;99.90;;;;;;4976875;28;20171;-75
2023/10/28 05:19:26;;;;;;;1.65;0.95;;;12.30;99.90;;;;;;4976699;28;20192;-77
2023/10/28 05:21:51;;;;;;;1.63;1.15;;;12.30;99.90;;;;;;4978599;28;20184;-77
2023/10/28 05:24:17;;;;;;;3.75;1.33;;;12.30;99.90;;;;;;4974467;28;20207;-76
2023/10/28 05:26:43;;;;;;;1.73;0.90;;;12.30;99.90;;;;;;4972410;28;20184;-77
2023/10/28 05:29:09;;;;;;;1.58;0.90;;;12.20;99.90;;;;;;4971391;28;20204;-78
2023/10/28 05:31:37;;;;;;;3.17;1.58;;;12.40;99.90;;;;;;4976166;28;20234;-76
2023/10/28 05:34:05;;;;;;;2.90;1.60;;;12.30;99.90;;;;;;4982128;28;20180;-73
2023/10/28 05:36:31;;;;;;;2.70;1.40;;;12.30;99.90;;;;;;4978742;28;20196;-78
2023/10/28 05:38:59;;;;;;;6.72;2.55;;;12.40;99.90;;;;;;4980568;28;20427;-75
2023/10/28 05:41:24;;;;;;;3.05;1.90;;;12.40;99.90;;;;;;4983129;28;20187;-77
2023/10/28 05:43:55;;;;;;;2.38;1.10;;;12.40;99.90;;;;;;4977569;28;20176;-78
2023/10/28 05:46:22;;;;;;;2.38;1.10;;;12.40;99.90;;;;;;4977269;28;20167;-77
2023/10/28 05:48:50;;;;;;;1.13;0.80;;;12.40;99.90;;;;;;4977308;28;20227;-76
2023/10/28 05:51:16;;;;;;;2.78;0.80;;;12.40;99.90;;;;;;4978136;28;20180;-78
2023/10/28 05:53:41;;;;;;;1.85;0.90;;;12.30;99.90;;;;;;4976299;28;20234;-75
2023/10/28 05:56:07;;;;;;;0.80;0.60;;;12.30;99.90;;;;;;4972035;28;20197;-78
2023/10/28 05:58:36;;;;;;;2.78;0.80;;;12.30;99.90;;;;;;4976336;28;20180;-78
2023/10/28 06:01:02;;;;;;;7.13;4.88;;;12.30;99.90;;;;;;4971391;28;20180;-78
2023/10/28 06:03:30;;;;;;;3.00;2.30;;;12.20;99.90;;;;;;4978586;28;20190;-77
2023/10/28 06:05:55;;;;;;;2.40;1.65;;;12.30;99.90;;;;;;4978682;28;20217;-78
2023/10/28 06:08:23;;;;;;;1.88;1.30;;;12.20;99.90;;;;;;4976254;28;20215;-76
2023/10/28 06:10:51;;;;;;;2.35;1.20;;;12.20;99.90;;;;;;4973536;28;20169;-77
2023/10/28 06:13:21;;;;;;;1.23;0.95;;;12.20;99.90;;;;;;4979181;28;20272;-78
2023/10/28 06:15:47;;;;;;;1.25;0.90;;;12.10;99.90;;;;;;4974693;28;20227;-77
2023/10/28 06:18:12;;;;;;;1.00;0.90;;;12.10;99.90;;;;;;4963882;28;20218;-78
2023/10/28 06:20:42;;;;;;;2.30;1.60;;;12.10;99.90;;;;;;4978702;28;20268;-78
2023/10/28 06:23:08;;;;;;;1.50;1.05;;;12.10;99.90;;;;;;4980680;28;20214;-78
2023/10/28 06:25:38;;;;;;;1.17;0.90;;;12.10;99.90;;;;;;4978141;28;20270;-77
2023/10/28 06:28:05;;;;;;;2.10;0.85;;;12.10;99.90;;;;;;4975827;28;20188;-78
2023/10/28 06:30:31;;;;;;;1.00;0.70;;;12.10;99.90;;;;;;4978126;28;20260;-78
2023/10/28 06:32:58;;;;;;;0.90;0.70;;;12.10;99.90;;;;;;4974825;28;20283;-78
2023/10/28 06:35:25;;;;;;;1.17;0.80;;;12.20;99.90;;;;;;4978129;28;20179;-79
2023/10/28 06:37:55;;;;;;;3.78;2.63;;;12.10;99.90;;;;;;4985849;28;20191;-78
2023/10/28 06:40:21;;;;;;;2.03;1.33;;;12.10;99.90;;;;;;4972444;28;20179;-79
2023/10/28 06:42:49;;;;;;;1.02;0.93;;;12.10;99.90;;;;;;4977299;28;20204;-78
2023/10/28 06:45:14;;;;;;;1.17;0.98;;;12.20;99.90;;;;;;4984877;28;20187;-78
2023/10/28 06:47:43;;;;;;;2.58;0.70;;;12.20;99.90;;;;;;4975693;28;20176;-77
2023/10/28 06:50:09;;;;;;;1.30;0.63;;;12.30;99.90;;;;;;4991776;28;20582;-77
2023/10/28 06:52:36;;;;;;;1.02;0.77;;;12.20;99.90;;;;;;4980242;28;20286;-80
2023/10/28 06:55:05;;;;;;;1.65;1.17;;;12.30;99.90;;;;;;4976801;28;20192;-77
2023/10/28 06:57:30;;;;;;;1.48;1.00;;;12.30;99.90;;;;;;4972544;28;20173;-78
2023/10/28 06:59:57;;;;;;;0.90;0.80;;;12.30;99.90;;;;;;4969337;28;20183;-77
2023/10/28 07:02:23;;;;;;;1.23;0.65;;;12.30;99.90;;;;;;4974519;28;20204;-80
2023/10/28 07:04:50;;;;;;;0.68;0.65;;;12.30;99.90;;;;;;4966341;28;20207;-80
2023/10/28 07:07:18;;;;;;;0.68;0.60;;;12.40;99.90;;;;;;4973910;28;20188;-77
2023/10/28 07:09:43;;;;;;;0.80;0.60;;;12.40;99.90;;;;;;4976580;28;20210;-77
2023/10/28 07:12:11;;;;;;;1.15;0.70;;;12.40;99.90;;;;;;4977776;28;20196;-77
2023/10/28 07:14:41;;;;;;;1.25;0.70;;;12.40;99.90;;;;;;4988411;28;20171;-76
2023/10/28 07:17:11;;;;;;;0.60;0.60;;;12.50;99.90;;;;;;4971500;28;20200;-77
2023/10/28 07:19:38;;;;;;;1.02;0.70;;;12.50;99.90;;;;;;4976311;28;20180;-76
2023/10/28 07:22:04;;;;;;;0.90;0.75;;;12.50;99.90;;;;;;4977066;28;20184;-74
2023/10/28 07:24:34;;;;;;;0.90;0.65;;;12.60;99.90;;;;;;4974969;28;20250;-77
2023/10/28 07:27:04;;;;;;;1.58;0.50;;;12.50;99.90;;;;;;4986390;28;20241;-74
2023/10/28 07:29:32;;;;;;;1.10;0.73;;;12.60;99.90;;;;;;4965239;28;20181;-76
2023/10/28 07:31:58;;;;;;;0.75;0.52;;;12.60;99.90;;;;;;4978673;28;20203;-78
2023/10/28 07:34:26;;;;;;;1.08;0.60;;;12.70;99.90;;;;;;4980102;28;20187;-76
2023/10/28 07:36:52;;;;;;;0.98;0.60;;;12.60;99.90;;;;;;4971717;28;20200;-78
2023/10/28 07:39:20;;;;;;;0.98;0.70;;;12.60;99.90;;;;;;4987144;28;20219;-73
2023/10/28 07:41:48;;;;;;;0.95;0.65;;;12.70;99.90;;;;;;4984775;28;20187;-75
2023/10/28 07:44:14;;;;;;;1.02;0.60;;;12.70;99.90;;;;;;4977555;28;20262;-74
2023/10/28 07:46:41;;;;;;;1.17;0.80;;;12.70;99.90;;;;;;4974735;28;20191;-76
2023/10/28 07:49:07;;;;;;;2.15;1.20;;;12.80;99.90;;;;;;4978957;28;20195;-74
2023/10/28 07:51:35;;;;;;;1.80;0.82;;;12.70;99.90;;;;;;4988421;28;20253;-77
2023/10/28 07:54:01;;;;;;;1.25;0.70;;;12.80;99.90;;;;;;4979956;28;20212;-74
2023/10/28 07:56:29;;;;;;;0.85;0.70;;;12.80;99.90;;;;;;4979670;28;20176;-74
2023/10/28 07:58:59;;;;;;;1.88;0.85;;;12.80;99.90;;;;;;4981163;28;20173;-76
2023/10/28 08:01:30;;;;;;;1.05;0.80;;;12.80;99.90;;;;;;4973156;28;20316;-76
2023/10/28 08:03:58;;;;;;;1.10;0.80;;;12.80;99.90;;;;;;4980104;28;20176;-75
2023/10/28 08:06:27;;;;;;;1.35;0.70;;;12.90;99.90;;;;;;4967853;28;20228;-75
2023/10/28 08:08:54;;;;;;;2.45;0.77;;;13.00;99.90;;;;;;5001087;28;20898;-75
2023/10/28 08:11:28;;;;;;;0.80;0.75;;;12.90;99.90;;;;;;4977847;28;20175;-74
2023/10/28 08:13:53;;;;;;;3.15;0.88;;;13.00;99.90;;;;;;4982081;28;20172;-78
2023/10/28 08:16:20;;;;;;;1.27;0.80;;;13.00;99.90;;;;;;4981459;28;20261;-77
2023/10/28 08:18:49;;;;;;;1.25;0.80;;;13.00;99.90;;;;;;4982553;28;20203;-78
2023/10/28 08:21:18;;;;;;;1.05;0.60;;;13.00;99.90;;;;;;4976228;28;20172;-76
2023/10/28 08:23:44;;;;;;;1.83;0.88;;;13.00;99.90;;;;;;4975589;28;20183;-77
2023/10/28 08:26:14;;;;;;;2.15;1.20;;;13.10;99.90;;;;;;4978549;28;20196;-77
2023/10/28 08:28:40;;;;;;;2.80;1.15;;;13.10;99.90;;;;;;4974254;28;20180;-78
2023/10/28 08:31:08;;;;;;;1.20;1.00;;;13.20;99.90;;;;;;4977893;28;20168;-79
2023/10/28 08:33:39;;;;;;;2.60;1.00;;;13.20;99.90;;;;;;4985753;28;20199;-78
2023/10/28 08:36:08;;;;;;;3.15;1.13;;;13.30;99.90;;;;;;4970089;28;20180;-79
2023/10/28 08:38:41;;;;;;;1.80;1.00;;;13.30;99.90;;;;;;4980846;28;20191;-77
2023/10/28 08:41:09;;;;;;;1.67;1.27;;;13.40;99.90;;;;;;4981148;28;20191;-78
2023/10/28 08:43:37;;;;;;;2.25;1.02;;;13.40;99.90;;;;;;4976061;28;20187;-75
2023/10/28 08:46:07;;;;;;;1.23;0.98;;;13.50;99.90;;;;;;4976907;28;20200;-77
2023/10/28 08:48:33;;;;;;;1.25;0.98;;;13.50;99.90;;;;;;4970970;28;20423;-77
2023/10/28 08:51:00;;;;;;;2.35;0.90;;;13.60;99.90;;;;;;4976913;28;20187;-78
2023/10/28 08:53:27;;;;;;;1.13;0.90;;;13.60;99.90;;;;;;4975336;28;20220;-71
2023/10/28 08:55:54;;;;;;;1.95;1.00;;;13.60;99.90;;;;;;4987562;28;20180;-73
2023/10/28 08:58:21;;;;;;;2.53;1.15;;;13.70;99.90;;;;;;4985903;28;20183;-72
2023/10/28 09:00:47;;;;;;;1.80;0.98;;;13.70;99.90;;;;;;4982299;28;20286;-74
2023/10/28 09:03:15;;;;;;;1.55;0.80;;;13.70;99.90;;;;;;4971129;28;20247;-74
2023/10/28 09:05:41;;;;;;;2.20;0.80;;;13.70;99.90;;;;;;4980497;28;20279;-75
2023/10/28 09:08:07;;;;;;;2.85;1.02;;;13.80;99.90;;;;;;4990830;28;20201;-75
2023/10/28 09:10:34;;;;;;;2.35;0.98;;;13.80;99.90;;;;;;4983807;28;20183;-76
2023/10/28 09:13:06;;;;;;;2.97;1.50;;;13.90;99.90;;;;;;4978675;28;20212;-76
2023/10/28 09:15:32;;;;;;;1.88;1.00;;;13.90;99.90;;;;;;4980194;28;20176;-77
2023/10/28 09:17:58;;;;;;;2.53;0.80;;;13.90;99.90;;;;;;4980488;28;20182;-76
2023/10/28 09:20:24;;;;;;;0.98;0.75;;;14.00;99.90;;;;;;4976238;28;20196;-76
2023/10/28 09:22:50;;;;;;;1.48;0.98;;;14.00;99.90;;;;;;4979540;28;20194;-79
2023/10/28 09:25:18;;;;;;;1.95;1.02;;;14.10;99.90;;;;;;4978606;28;20188;-76
2023/10/28 09:27:46;;;;;;;1.30;0.73;;;14.10;99.90;;;;;;4979968;28;20275;-76
2023/10/28 09:30:12;;;;;;;1.42;0.80;;;14.20;99.90;;;;;;4977757;28;20172;-78
2023/10/28 09:32:41;;;;;;;1.83;0.80;;;14.20;99.90;;;;;;4991143;28;20225;-76
2023/10/28 09:35:08;;;;;;;1.30;0.80;;;14.30;99.90;;;;;;4989470;28;20187;-79
2023/10/28 09:37:35;;;;;;;1.00;0.70;;;14.40;99.90;;;;;;4983366;28;20267;-77
2023/10/28 09:40:08;;;;;;;1.52;0.77;;;14.50;99.90;;;;;;4972182;28;20346;-77
2023/10/28 09:42:35;;;;;;;0.77;0.60;;;14.60;99.90;;;;;;4979416;28;20187;-78
2023/10/28 09:45:05;;;;;;;0.82;0.50;;;14.70;99.90;;;;;;4986608;28;20189;-76
2023/10/28 09:47:58;;;;;;;1.83;0.77;;;14.90;99.90;;;;;;4978847;28;20278;-78
2023/10/28 09:50:28;;;;;;;0.55;0.50;;;15.00;99.90;;;;;;4974578;28;20224;-76
2023/10/28 09:52:57;;;;;;;1.45;0.60;;;15.30;99.90;;;;;;4984546;28;20202;-76
2023/10/28 09:55:27;;;;;;;2.05;0.60;;;15.60;99.90;;;;;;4974982;28;20335;-77
2023/10/28 09:58:07;;;;;;;1.10;0.70;;;15.90;99.90;;;;;;4967119;28;20184;-78
2023/10/28 10:00:34;;;;;;;1.45;0.70;;;16.20;99.90;;;;;;4973833;28;20235;-67
2023/10/28 10:03:50;;;;;;;2.35;0.93;;;16.60;99.90;;;;;;4975629;28;20205;-79
2023/10/28 10:06:16;;;;;;;1.15;0.70;;;17.00;99.90;;;;;;4940354;29;20204;-78
2023/10/28 10:08:49;;;;;;;2.20;0.95;;;17.30;99.90;;;;;;4959514;28;20208;-79
2023/10/28 10:11:29;;;;;;;1.45;0.60;;;17.50;99.90;;;;;;4978982;28;20301;-77
2023/10/28 10:14:00;;;;;;;2.15;0.80;;;17.50;99.90;;;;;;4983334;28;20294;-77
2023/10/28 10:16:39;;;;;;;1.45;0.60;;;17.40;99.90;;;;;;4986695;28;20255;-71
2023/10/28 10:19:10;;;;;;;1.90;0.60;;;17.40;99.90;;;;;;4988963;28;20224;-78
2023/10/28 10:21:36;;;;;;;3.25;0.70;;;17.40;99.90;;;;;;4986502;28;20207;-78
2023/10/28 10:24:06;;;;;;;1.88;0.98;;;17.50;99.90;;;;;;4982731;28;20243;-76
2023/10/28 10:26:33;;;;;;;1.77;0.70;;;17.60;99.90;;;;;;4976101;28;20180;-78
2023/10/28 10:29:00;;;;;;;1.25;0.65;;;17.70;99.90;;;;;;4986843;28;20225;-78
2023/10/28 10:31:33;;;;;;;1.63;0.80;;;17.80;99.90;;;;;;4981087;28;20172;-78
2023/10/28 10:34:09;;;;;;;2.75;1.00;;;17.90;99.90;;;;;;4979642;28;20176;-78
2023/10/28 10:36:38;;;;;;;2.58;1.00;;;17.80;99.90;;;;;;4986315;28;20214;-76
2023/10/28 10:39:17;;;;;;;2.45;1.13;;;17.80;99.90;;;;;;4977530;28;20180;-77
2023/10/28 10:41:52;;;;;;;2.90;1.20;;;17.60;99.90;;;;;;4959471;28;20201;-79
2023/10/28 10:44:22;;;;;;;3.83;1.30;;;17.50;99.90;;;;;;4977778;28;20183;-78
2023/10/28 10:46:51;;;;;;;5.53;1.23;;;17.40;99.90;;;;;;4985127;28;20185;-73
2023/10/28 10:49:19;;;;;;;3.92;1.13;;;17.30;99.90;;;;;;4978349;28;20208;-76
2023/10/28 10:51:45;;;;;;;4.55;1.10;;;17.20;99.90;;;;;;4977447;28;20515;-72
2023/10/28 10:54:11;;;;;;;2.15;0.90;;;17.10;99.90;;;;;;4982007;28;20180;-77
2023/10/28 10:56:36;;;;;;;2.72;1.08;;;17.00;99.90;;;;;;4983738;28;20183;-73
2023/10/28 10:59:02;;;;;;;2.67;1.10;;;16.90;99.90;;;;;;4985816;28;20172;-75
2023/10/28 11:01:31;;;;;;;3.40;1.27;;;16.90;99.90;;;;;;4980749;28;20267;-76
2023/10/28 11:03:57;;;;;;;4.97;1.25;;;16.80;99.90;;;;;;4978855;28;20183;-77
2023/10/28 11:06:25;;;;;;;3.50;1.27;;;16.80;99.90;;;;;;4975457;28;20172;-77
2023/10/28 11:08:53;;;;;;;3.25;1.00;;;16.70;99.90;;;;;;4977220;28;20188;-78
2023/10/28 11:11:21;;;;;;;2.70;1.00;;;16.70;99.90;;;;;;4976229;28;20224;-78
2023/10/28 11:13:46;;;;;;;4.07;1.23;;;16.80;99.90;;;;;;4976966;28;20291;-77
2023/10/28 11:16:23;;;;;;;6.85;1.77;;;16.90;99.90;;;;;;4982455;28;20199;-78
2023/10/28 11:18:51;;;;;;;2.75;1.00;;;17.10;99.90;;;;;;4977049;28;20183;-77
2023/10/28 11:21:18;;;;;;;6.15;1.65;;;17.30;99.90;;;;;;4976806;28;20224;-74
2023/10/28 11:23:45;;;;;;;4.68;1.33;;;17.40;99.90;;;;;;4976603;28;20180;-78
2023/10/28 11:26:21;;;;;;;4.63;1.40;;;17.50;99.90;;;;;;4977038;28;20202;-77
2023/10/28 11:28:47;;;;;;;2.83;1.30;;;17.50;99.90;;;;;;4984832;28;20175;-77
2023/10/28 11:31:13;;;;;;;3.92;1.20;;;17.50;99.90;;;;;;4991435;28;20186;-77
2023/10/28 11:33:40;;;;;;;4.95;1.55;;;17.50;99.90;;;;;;4970060;28;20211;-77
2023/10/28 11:36:08;;;;;;;2.28;0.80;;;17.50;99.90;;;;;;4989621;28;20176;-79
2023/10/28 11:38:37;;;;;;;4.35;1.45;;;17.40;99.90;;;;;;4978456;28;20268;-79
2023/10/28 11:41:08;;;;;;;3.17;1.50;;;17.40;99.90;;;;;;4979219;28;20198;-76
2023/10/28 11:43:37;;;;;;;2.88;1.17;;;17.40;99.90;;;;;;4967736;28;20212;-79
2023/10/28 11:46:06;;;;;;;3.20;1.00;;;17.50;99.90;;;;;;4982895;28;20444;-74
2023/10/28 11:48:34;;;;;;;3.65;1.27;;;17.50;99.90;;;;;;4976887;28;20345;-79
2023/10/28 11:51:02;;;;;;;4.93;1.33;;;17.40;99.90;;;;;;4976503;28;20171;-74
2023/10/28 11:53:29;;;;;;;2.35;1.05;;;17.40;99.90;;;;;;4976225;28;20200;-79
2023/10/28 11:55:55;;;;;;;3.95;1.23;;;17.30;99.90;;;;;;4976826;28;20191;-80
2023/10/28 11:58:24;;;;;;;2.55;1.30;;;17.30;99.90;;;;;;4972905;28;20207;-77
2023/10/28 12:00:55;;;;;;;4.35;0.85;;;17.20;99.90;;;;;;4972273;28;20294;-78
2023/10/28 12:03:25;;;;;;;3.60;0.95;;;17.20;99.90;;;;;;4968574;28;20202;-78
2023/10/28 12:05:53;;;;;;;3.92;1.40;;;17.20;99.90;;;;;;4974952;28;20208;-78
2023/10/28 12:08:22;;;;;;;1.92;1.23;;;17.10;99.90;;;;;;4956848;28;20192;-77
2023/10/28 12:10:50;;;;;;;2.40;1.00;;;17.10;99.90;;;;;;4969548;28;20184;-80
2023/10/28 12:13:19;;;;;;;2.38;0.88;;;17.10;99.90;;;;;;4972962;28;20235;-76
2023/10/28 12:15:45;;;;;;;1.65;0.80;;;17.10;99.90;;;;;;4973277;28;20188;-78
2023/10/28 12:18:10;;;;;;;3.03;0.80;;;17.10;99.90;;;;;;4976603;28;20196;-76
2023/10/28 12:20:37;;;;;;;3.08;1.17;;;17.20;99.90;;;;;;4979982;28;20199;-81
2023/10/28 12:23:04;;;;;;;3.67;1.00;;;17.20;99.90;;;;;;4982077;28;20190;-80
2023/10/28 12:25:32;;;;;;;5.68;1.05;;;17.20;99.90;;;;;;5000423;28;20207;-68
2023/10/28 12:28:00;;;;;;;3.50;1.10;;;17.20;99.90;;;;;;5005910;28;20172;-71
2023/10/28 12:30:27;;;;;;;1.50;0.90;;;17.20;99.90;;;;;;4997077;28;20192;-62
2023/10/28 12:32:53;;;;;;;2.05;1.00;;;17.20;99.90;;;;;;4989404;28;20207;-81
2023/10/28 12:35:19;;;;;;;1.83;0.90;;;17.20;99.90;;;;;;4981048;28;20194;-80
2023/10/28 12:37:47;;;;;;;1.90;0.80;;;17.20;99.90;;;;;;4975663;28;20212;-80
2023/10/28 12:40:15;;;;;;;2.03;0.93;;;17.20;99.90;;;;;;4972744;28;20181;-81
2023/10/28 12:42:43;;;;;;;1.95;1.00;;;17.30;99.90;;;;;;4974276;28;20204;-77
2023/10/28 12:45:10;;;;;;;1.75;0.88;;;17.40;99.90;;;;;;4965732;28;20254;-79
2023/10/28 12:47:35;;;;;;;3.65;1.20;;;17.50;99.90;;;;;;4975685;28;20188;-76
2023/10/28 12:50:03;;;;;;;2.83;1.00;;;17.60;99.90;;;;;;4974571;28;20184;-76